createdAt,value
2023-03-11T00:01:14.662Z,121.27
2023-03-11T00:03:52.363Z,120.00
2023-03-11T00:06:28.985Z,114.00
2023-03-11T00:09:05.121Z,131.87
2023-03-11T00:11:47.721Z,121.00
2023-03-11T00:14:23.803Z,125.87
2023-03-11T00:16:59.722Z,133.97
2023-03-11T00:19:35.530Z,132.53
2023-03-11T00:22:11.523Z,130.00
2023-03-11T00:24:49.548Z,122.73
2023-03-11T00:27:27.833Z,131.47
2023-03-11T00:30:03.896Z,126.90
2023-03-11T00:32:42.061Z,124.07
2023-03-11T00:35:22.952Z,132.70
2023-03-11T00:38:02.608Z,122.20
2023-03-11T00:40:40.471Z,132.97
2023-03-11T00:43:20.147Z,120.43
2023-03-11T00:45:55.636Z,129.90
2023-03-11T00:48:32.236Z,131.47
2023-03-11T00:51:08.585Z,128.73
2023-03-11T00:53:49.970Z,132.73
2023-03-11T00:56:26.784Z,129.67
2023-03-11T00:59:11.927Z,126.37
2023-03-11T01:01:49.066Z,128.83
2023-03-11T01:04:30.239Z,143.20
2023-03-11T01:07:06.913Z,139.20
2023-03-11T01:09:43.128Z,136.77
2023-03-11T01:12:20.178Z,140.67
2023-03-11T01:15:05.481Z,146.03
2023-03-11T01:17:39.389Z,142.13
2023-03-11T01:20:19.749Z,132.27
2023-03-11T01:23:04.049Z,134.57
2023-03-11T01:25:38.179Z,146.83
2023-03-11T01:28:18.298Z,137.27
2023-03-11T01:30:58.147Z,138.83
2023-03-11T01:33:34.330Z,140.60
2023-03-11T01:36:12.051Z,140.17
2023-03-11T01:38:48.376Z,131.83
2023-03-11T01:41:27.945Z,142.23
2023-03-11T01:44:03.839Z,126.70
2023-03-11T01:47:25.837Z,117.83
2023-03-11T01:50:08.101Z,142.40
2023-03-11T01:52:47.671Z,134.90
2023-03-11T01:55:26.644Z,140.20
2023-03-11T01:58:10.533Z,133.13
2023-03-11T02:00:49.902Z,129.23
2023-03-11T02:03:32.628Z,140.50
2023-03-11T02:06:14.282Z,143.80
2023-03-11T02:08:55.478Z,144.50
2023-03-11T02:11:41.352Z,158.00
2023-03-11T02:14:23.527Z,142.60
2023-03-11T02:17:04.113Z,143.37
2023-03-11T02:20:00.728Z,147.90
2023-03-11T02:22:40.485Z,139.93
2023-03-11T02:25:23.527Z,145.13
2023-03-11T02:28:04.507Z,148.67
2023-03-11T02:30:46.822Z,155.63
2023-03-11T02:33:27.036Z,147.17
2023-03-11T02:36:03.689Z,156.43
2023-03-11T02:38:45.019Z,152.83
2023-03-11T02:41:27.110Z,160.00
2023-03-11T02:44:14.359Z,164.87
2023-03-11T02:47:02.101Z,153.63
2023-03-11T02:49:41.380Z,146.30
2023-03-11T02:52:25.576Z,152.97
2023-03-11T02:55:07.007Z,145.63
2023-03-11T02:57:48.424Z,146.83
2023-03-11T03:00:34.004Z,148.87
2023-03-11T03:03:15.755Z,146.13
2023-03-11T03:05:52.447Z,145.90
2023-03-11T03:08:30.104Z,141.87
2023-03-11T03:11:07.881Z,145.87
2023-03-11T03:13:45.550Z,128.60
2023-03-11T03:16:26.078Z,132.80
2023-03-11T03:19:09.436Z,136.00
2023-03-11T03:21:47.207Z,126.03
2023-03-11T03:24:25.217Z,143.33
2023-03-11T03:27:08.759Z,121.60
2023-03-11T03:29:46.099Z,118.97
2023-03-11T03:32:40.346Z,116.43
2023-03-11T03:35:20.410Z,111.90
2023-03-11T03:38:06.360Z,105.77
2023-03-11T03:40:44.621Z,124.67
2023-03-11T03:43:21.537Z,121.93
2023-03-11T03:46:06.257Z,124.20
2023-03-11T03:49:01.953Z,121.93
2023-03-11T03:51:42.351Z,112.27
2023-03-11T03:54:27.660Z,132.97
2023-03-11T03:57:04.535Z,151.80
2023-03-11T03:59:45.695Z,132.50
2023-03-11T04:02:39.882Z,137.43
2023-03-11T04:05:28.608Z,132.90
2023-03-11T04:08:12.356Z,137.57
2023-03-11T04:10:50.553Z,145.30
2023-03-11T04:13:31.801Z,135.67
2023-03-11T04:16:18.101Z,140.60
2023-03-11T04:18:57.234Z,146.73
2023-03-11T04:21:40.263Z,144.07
2023-03-11T04:24:18.485Z,140.20
2023-03-11T04:26:55.972Z,138.50
2023-03-11T04:29:35.632Z,129.50
2023-03-11T04:32:12.750Z,136.80
2023-03-11T04:34:53.353Z,130.10
2023-03-11T04:37:38.623Z,116.33
2023-03-11T04:40:18.574Z,121.53
2023-03-11T04:42:57.385Z,129.10
2023-03-11T04:45:35.783Z,110.73
2023-03-11T04:48:15.161Z,124.87
2023-03-11T04:50:53.222Z,119.53
2023-03-11T04:53:44.554Z,124.00
2023-03-11T04:56:25.389Z,120.20
2023-03-11T04:59:04.786Z,127.00
2023-03-11T05:01:47.432Z,124.40
2023-03-11T05:04:34.673Z,117.50
2023-03-11T05:07:11.514Z,117.90
2023-03-11T05:09:54.861Z,116.80
2023-03-11T05:12:32.852Z,110.67
2023-03-11T05:15:14.910Z,108.80
2023-03-11T05:17:56.199Z,113.47
2023-03-11T05:20:38.727Z,110.20
2023-03-11T05:23:18.639Z,110.57
2023-03-11T05:26:07.203Z,114.17
2023-03-11T05:28:44.622Z,117.17
2023-03-11T05:31:32.477Z,118.93
2023-03-11T05:34:20.360Z,116.47
2023-03-11T05:36:58.014Z,120.30
2023-03-11T05:39:36.395Z,118.53
2023-03-11T05:42:21.444Z,115.53
2023-03-11T05:45:02.434Z,114.77
2023-03-11T05:47:40.607Z,124.20
2023-03-11T05:50:19.753Z,117.77
2023-03-11T05:53:02.243Z,119.50
2023-03-11T05:55:40.900Z,115.63
2023-03-11T05:58:20.012Z,114.83
2023-03-11T06:01:09.003Z,113.40
2023-03-11T06:03:52.435Z,116.27
2023-03-11T06:06:33.265Z,120.87
2023-03-11T06:09:12.397Z,116.07
2023-03-11T06:11:53.765Z,108.03
2023-03-11T06:14:40.682Z,104.27
2023-03-11T06:17:18.263Z,106.90
2023-03-11T06:20:00.635Z,104.07
2023-03-11T06:22:39.958Z,96.50
2023-03-11T06:25:17.846Z,90.33
2023-03-11T06:28:00.088Z,104.00
2023-03-11T06:30:39.436Z,86.03
2023-03-11T06:33:22.758Z,100.53
2023-03-11T06:36:09.284Z,100.67
2023-03-11T06:38:46.554Z,101.00
2023-03-11T06:41:27.205Z,109.17
2023-03-11T06:44:06.714Z,112.13
2023-03-11T06:46:51.036Z,92.93
2023-03-11T06:49:28.213Z,105.13
2023-03-11T06:52:07.218Z,108.20
2023-03-11T06:55:02.362Z,109.63
2023-03-11T06:57:46.436Z,101.03
2023-03-11T07:00:30.497Z,93.97
2023-03-11T07:03:11.420Z,100.03
2023-03-11T07:05:51.043Z,86.97
2023-03-11T07:08:31.154Z,85.13
2023-03-11T07:11:12.753Z,82.47
2023-03-11T07:13:52.387Z,84.93
2023-03-11T07:16:31.263Z,94.57
2023-03-11T07:19:22.156Z,78.23
2023-03-11T07:22:04.967Z,72.80
2023-03-11T07:24:47.727Z,65.83
2023-03-11T07:27:29.181Z,72.97
2023-03-11T07:30:09.752Z,64.43
2023-03-11T07:33:00.505Z,73.07
2023-03-11T07:35:43.857Z,63.37
2023-03-11T07:38:21.107Z,63.97
2023-03-11T07:41:15.152Z,56.63
2023-03-11T07:43:55.152Z,64.77
2023-03-11T07:46:35.225Z,62.13
2023-03-11T07:49:18.830Z,58.13
2023-03-11T07:52:06.450Z,57.93
2023-03-11T07:54:43.450Z,57.53
2023-03-11T07:57:21.235Z,54.33
2023-03-11T07:59:58.166Z,57.60
2023-03-11T08:02:39.249Z,50.43
2023-03-11T08:05:22.863Z,57.60
2023-03-11T08:08:30.961Z,58.00
2023-03-11T08:11:23.415Z,55.37
2023-03-11T08:14:04.171Z,53.13
2023-03-11T08:16:41.238Z,57.67
2023-03-11T08:19:19.978Z,51.07
2023-03-11T08:21:56.370Z,59.43
2023-03-11T08:24:58.195Z,59.47
2023-03-11T08:27:57.261Z,53.20
2023-03-11T08:30:33.719Z,54.37
2023-03-11T08:33:14.535Z,50.50
2023-03-11T08:36:15.149Z,54.27
2023-03-11T08:38:54.271Z,47.43
2023-03-11T08:41:34.337Z,58.40
2023-03-11T08:44:13.351Z,49.33
2023-03-11T08:46:56.245Z,46.40
2023-03-11T08:49:34.735Z,50.07
2023-03-11T08:52:11.570Z,50.50
2023-03-11T08:54:49.889Z,57.37
2023-03-11T08:57:29.091Z,53.57
2023-03-11T09:00:19.036Z,53.97
2023-03-11T09:02:56.948Z,53.70
2023-03-11T09:05:41.762Z,50.67
2023-03-11T09:08:22.469Z,47.50
2023-03-11T09:11:06.077Z,47.50
2023-03-11T09:13:48.454Z,52.23
2023-03-11T09:16:32.971Z,54.30
2023-03-11T09:19:09.823Z,52.33
2023-03-11T09:21:52.816Z,51.13
2023-03-11T09:24:34.758Z,51.40
2023-03-11T09:27:35.893Z,58.90
2023-03-11T09:30:18.499Z,48.33
2023-03-11T09:32:57.638Z,49.27
2023-03-11T09:35:37.113Z,46.53
2023-03-11T09:38:13.804Z,47.50
2023-03-11T09:41:06.932Z,49.00
2023-03-11T09:44:04.667Z,43.77
2023-03-11T09:47:05.260Z,44.30
2023-03-11T09:49:57.921Z,44.77
2023-03-11T09:52:47.733Z,46.20
2023-03-11T09:55:48.777Z,44.53
2023-03-11T09:58:35.866Z,43.10
2023-03-11T10:01:26.593Z,46.17
2023-03-11T10:04:16.402Z,42.00
2023-03-11T10:07:02.763Z,47.17
2023-03-11T10:09:47.268Z,37.20
2023-03-11T10:12:34.798Z,50.70
2023-03-11T10:15:30.828Z,47.10
2023-03-11T10:18:32.346Z,53.50
2023-03-11T10:21:16.469Z,45.00
2023-03-11T10:24:17.570Z,47.53
2023-03-11T10:26:57.705Z,43.07
2023-03-11T10:29:38.665Z,47.70
2023-03-11T10:32:22.534Z,47.60
2023-03-11T10:35:10.436Z,50.37
2023-03-11T10:37:53.304Z,50.93
2023-03-11T10:40:38.398Z,54.43
2023-03-11T10:43:19.749Z,62.27
2023-03-11T10:45:59.924Z,60.37
2023-03-11T10:48:39.127Z,66.27
2023-03-11T10:51:33.082Z,74.40
2023-03-11T10:54:10.168Z,72.00
2023-03-11T10:56:48.706Z,67.63
2023-03-11T10:59:35.876Z,72.63
2023-03-11T11:02:35.947Z,59.13
2023-03-11T11:05:34.719Z,69.90
2023-03-11T11:08:14.169Z,72.27
2023-03-11T11:11:02.435Z,73.03
2023-03-11T11:13:46.179Z,71.73
2023-03-11T11:16:29.637Z,66.13
2023-03-11T11:19:13.450Z,77.77
2023-03-11T11:21:54.235Z,66.20
2023-03-11T11:24:36.969Z,70.53
2023-03-11T11:27:20.562Z,71.90
2023-03-11T11:30:22.940Z,58.33
2023-03-11T11:33:38.365Z,58.23
2023-03-11T11:36:25.995Z,63.10
2023-03-11T11:39:07.756Z,57.30
2023-03-11T11:41:49.442Z,60.17
2023-03-11T11:44:31.673Z,56.53
2023-03-11T11:47:23.489Z,53.27
2023-03-11T11:50:08.862Z,62.57
2023-03-11T11:52:52.829Z,51.20
2023-03-11T11:55:31.582Z,57.83
2023-03-11T11:58:19.597Z,59.70
2023-03-11T12:01:47.271Z,60.43
2023-03-11T12:04:57.289Z,62.33
2023-03-11T12:07:54.482Z,57.43
2023-03-11T12:10:37.094Z,59.03
2023-03-11T12:13:49.997Z,61.53
2023-03-11T12:16:42.989Z,61.93
2023-03-11T12:19:36.739Z,216.50
2023-03-11T12:22:47.223Z,332.67
2023-03-11T12:25:40.873Z,253.40
2023-03-11T12:28:41.236Z,214.27
2023-03-11T12:31:20.230Z,219.40
2023-03-11T12:34:09.202Z,220.27
2023-03-11T12:36:48.943Z,233.33
2023-03-11T12:39:38.890Z,204.93
2023-03-11T12:42:45.208Z,175.23
2023-03-11T12:46:01.157Z,154.73
2023-03-11T12:48:48.226Z,153.30
2023-03-11T12:51:52.294Z,207.40
2023-03-11T12:54:41.518Z,162.77
2023-03-11T12:57:42.866Z,165.50
2023-03-11T13:00:55.513Z,162.53
2023-03-11T13:03:58.326Z,136.63
2023-03-11T13:07:27.351Z,183.37
2023-03-11T13:10:25.153Z,149.53
2023-03-11T13:13:06.185Z,154.83
2023-03-11T13:15:56.725Z,128.90
2023-03-11T13:18:46.907Z,162.00
2023-03-11T13:21:46.755Z,151.23
2023-03-11T13:24:58.708Z,86.63
2023-03-11T13:27:54.553Z,157.57
2023-03-11T13:30:46.670Z,163.53
2023-03-11T13:33:38.845Z,148.47
2023-03-11T13:36:25.037Z,128.20
2023-03-11T13:39:28.885Z,143.30
2023-03-11T13:42:08.714Z,152.27
2023-03-11T13:44:52.876Z,124.13
2023-03-11T13:47:39.783Z,140.90
2023-03-11T13:50:31.055Z,158.77
2023-03-11T13:53:12.686Z,169.87
2023-03-11T13:56:05.486Z,89.60
2023-03-11T13:58:42.032Z,100.00
2023-03-11T14:01:24.832Z,70.30
2023-03-11T14:04:18.943Z,97.13
2023-03-11T14:07:04.824Z,76.33
2023-03-11T14:09:45.164Z,69.53
2023-03-11T14:12:24.435Z,63.57
2023-03-11T14:15:08.004Z,34.97
2023-03-11T14:18:00.113Z,53.43
2023-03-11T14:20:39.067Z,43.90
2023-03-11T14:23:29.581Z,69.17
2023-03-11T14:26:15.269Z,39.60
2023-03-11T14:29:00.115Z,44.37
2023-03-11T14:31:39.622Z,49.67
2023-03-11T14:34:23.701Z,31.33
2023-03-11T14:37:17.860Z,21.93
2023-03-11T14:39:56.981Z,39.77
2023-03-11T14:42:45.139Z,41.20
2023-03-11T14:45:26.008Z,29.87
2023-03-11T14:48:05.640Z,22.07
2023-03-11T14:50:51.261Z,25.63
2023-03-11T14:53:52.407Z,26.40
2023-03-11T14:56:39.829Z,40.63
2023-03-11T14:59:21.797Z,26.43
2023-03-11T15:02:05.262Z,29.73
2023-03-11T15:04:50.010Z,28.77
2023-03-11T15:07:27.338Z,24.47
2023-03-11T15:10:24.926Z,29.40
2023-03-11T15:13:12.718Z,25.03
2023-03-11T15:16:06.679Z,31.27
2023-03-11T15:18:46.932Z,22.93
2023-03-11T15:21:33.602Z,19.97
2023-03-11T15:24:27.856Z,28.83
2023-03-11T15:27:16.374Z,18.87
2023-03-11T15:29:59.835Z,19.23
2023-03-11T15:32:49.467Z,18.33
2023-03-11T15:35:33.237Z,18.10
2023-03-11T15:38:31.055Z,22.30
2023-03-11T15:41:16.169Z,15.47
2023-03-11T15:44:04.002Z,21.20
2023-03-11T15:46:41.105Z,14.00
2023-03-11T15:49:19.470Z,12.83
2023-03-11T15:52:10.324Z,16.43
2023-03-11T15:54:55.965Z,11.37
2023-03-11T15:57:36.805Z,20.73
2023-03-11T16:00:27.706Z,22.53
2023-03-11T16:03:06.747Z,11.70
2023-03-11T16:05:46.827Z,15.73
2023-03-11T16:08:23.862Z,16.37
2023-03-11T16:11:09.925Z,14.50
2023-03-11T16:13:54.333Z,18.37
2023-03-11T16:16:42.107Z,17.87
2023-03-11T16:19:22.081Z,12.53
2023-03-11T16:21:59.493Z,20.00
2023-03-11T16:24:36.062Z,15.37
2023-03-11T16:27:12.339Z,12.77
2023-03-11T16:29:49.377Z,17.80
2023-03-11T16:32:35.728Z,17.23
2023-03-11T16:35:17.779Z,21.37
2023-03-11T16:37:56.291Z,19.80
2023-03-11T16:40:36.295Z,16.63
2023-03-11T16:43:15.525Z,18.57
2023-03-11T16:45:55.385Z,13.30
2023-03-11T16:48:36.640Z,15.00
2023-03-11T16:51:12.909Z,10.60
2023-03-11T16:53:50.731Z,18.53
2023-03-11T16:56:29.146Z,14.47
2023-03-11T16:59:06.854Z,14.70
2023-03-11T17:01:44.437Z,15.97
2023-03-11T17:04:23.206Z,15.60
2023-03-11T17:07:02.049Z,18.57
2023-03-11T17:09:43.769Z,15.57
2023-03-11T17:12:20.530Z,22.80
2023-03-11T17:15:03.549Z,11.93
2023-03-11T17:17:39.505Z,15.37
2023-03-11T17:20:23.921Z,21.53
2023-03-11T17:23:04.000Z,14.73
2023-03-11T17:25:46.567Z,17.60
2023-03-11T17:28:23.160Z,12.30
2023-03-11T17:30:59.548Z,17.03
2023-03-11T17:33:37.302Z,14.90
2023-03-11T17:36:20.328Z,19.43
2023-03-11T17:38:59.354Z,18.10
2023-03-11T17:41:35.186Z,12.77
2023-03-11T17:44:12.765Z,18.00
2023-03-11T17:46:49.148Z,15.83
2023-03-11T17:49:28.784Z,14.80
2023-03-11T17:52:07.359Z,12.70
2023-03-11T17:54:43.657Z,12.10
2023-03-11T17:57:19.693Z,11.27
2023-03-11T17:59:57.705Z,19.37
2023-03-11T18:02:33.826Z,13.27
2023-03-11T18:05:10.957Z,13.53
2023-03-11T18:07:49.345Z,16.60
2023-03-11T18:10:25.774Z,11.50
2023-03-11T18:13:01.505Z,14.93
2023-03-11T18:15:41.290Z,13.77
2023-03-11T18:18:16.914Z,16.73
2023-03-11T18:20:52.773Z,11.00
2023-03-11T18:23:31.134Z,12.80
2023-03-11T18:26:08.070Z,18.77
2023-03-11T18:28:44.320Z,19.73
2023-03-11T18:31:21.653Z,22.70
2023-03-11T18:33:58.758Z,18.63
2023-03-11T18:36:37.424Z,14.60
2023-03-11T18:39:16.783Z,15.60
2023-03-11T18:41:52.569Z,20.13
2023-03-11T18:44:29.460Z,22.57
2023-03-11T18:47:05.362Z,16.70
2023-03-11T18:49:41.187Z,13.17
2023-03-11T18:52:17.003Z,22.97
2023-03-11T18:54:55.080Z,14.60
2023-03-11T18:57:31.124Z,17.07
2023-03-11T19:00:07.137Z,15.63
2023-03-11T19:02:44.407Z,12.23
2023-03-11T19:05:20.717Z,22.17
2023-03-11T19:07:56.083Z,11.70
2023-03-11T19:10:33.713Z,22.67
2023-03-11T19:13:09.001Z,12.83
2023-03-11T19:15:46.118Z,19.80
2023-03-11T19:18:20.930Z,17.97
2023-03-11T19:21:03.042Z,23.13
2023-03-11T19:23:41.316Z,16.63
2023-03-11T19:26:18.491Z,14.00
2023-03-11T19:28:53.936Z,16.27
2023-03-11T19:31:29.258Z,12.50
2023-03-11T19:34:04.199Z,15.57
2023-03-11T19:36:39.193Z,16.77
2023-03-11T19:39:14.950Z,18.63
2023-03-11T19:41:51.899Z,17.40
2023-03-11T19:44:27.353Z,18.27
2023-03-11T19:47:03.242Z,13.70
2023-03-11T19:49:37.605Z,17.00
2023-03-11T19:52:11.665Z,16.90
2023-03-11T19:54:47.264Z,16.67
2023-03-11T19:57:23.490Z,23.67
2023-03-11T19:59:58.727Z,21.30
2023-03-11T20:02:33.680Z,14.70
2023-03-11T20:05:09.097Z,18.23
2023-03-11T20:07:42.869Z,14.50
2023-03-11T20:10:17.658Z,16.47
2023-03-11T20:13:02.114Z,15.77
2023-03-11T20:15:37.830Z,16.07
2023-03-11T20:18:13.337Z,19.57
2023-03-11T20:20:48.218Z,14.43
2023-03-11T20:23:23.421Z,25.13
2023-03-11T20:25:56.913Z,25.93
2023-03-11T20:28:33.059Z,19.40
2023-03-11T20:31:13.809Z,19.73
2023-03-11T20:33:47.219Z,20.47
2023-03-11T20:36:23.906Z,23.30
2023-03-11T20:38:59.533Z,16.93
2023-03-11T20:41:39.400Z,20.13
2023-03-11T20:44:18.294Z,25.43
2023-03-11T20:46:51.456Z,15.87
2023-03-11T20:49:25.210Z,15.00
2023-03-11T20:51:59.088Z,12.63
2023-03-11T20:54:32.997Z,18.07
2023-03-11T20:57:07.170Z,20.33
2023-03-11T20:59:42.486Z,41.93
2023-03-11T21:02:16.924Z,24.07
2023-03-11T21:04:50.965Z,27.87
2023-03-11T21:07:25.318Z,26.57
2023-03-11T21:09:59.698Z,25.37
2023-03-11T21:12:34.035Z,24.30
2023-03-11T21:15:11.537Z,25.57
2023-03-11T21:17:45.267Z,21.03
2023-03-11T21:20:18.975Z,21.93
2023-03-11T21:22:52.702Z,23.00
2023-03-11T21:25:26.825Z,28.33
2023-03-11T21:28:01.489Z,21.23
2023-03-11T21:30:39.764Z,20.07
2023-03-11T21:33:15.646Z,23.90
2023-03-11T21:35:56.020Z,23.97
2023-03-11T21:38:30.629Z,19.97
2023-03-11T21:41:12.487Z,21.93
2023-03-11T21:43:47.808Z,22.23
2023-03-11T21:46:26.064Z,20.73
2023-03-11T21:49:02.157Z,28.90
2023-03-11T21:51:37.075Z,24.53
2023-03-11T21:54:12.713Z,23.93
2023-03-11T21:56:47.764Z,29.50
2023-03-11T21:59:24.178Z,22.60
2023-03-11T22:02:04.424Z,26.00
2023-03-11T22:04:38.718Z,22.53
2023-03-11T22:07:14.136Z,22.90
2023-03-11T22:09:47.753Z,36.33
2023-03-11T22:12:21.576Z,29.67
2023-03-11T22:14:56.380Z,24.83
2023-03-11T22:17:31.805Z,26.43
2023-03-11T22:20:06.334Z,23.13
2023-03-11T22:22:41.466Z,22.13
2023-03-11T22:25:18.382Z,22.83
2023-03-11T22:27:53.656Z,21.20
2023-03-11T22:30:29.237Z,25.50
2023-03-11T22:33:05.459Z,26.33
2023-03-11T22:35:40.256Z,26.73
2023-03-11T22:38:14.348Z,22.70
2023-03-11T22:40:50.113Z,34.37
2023-03-11T22:43:25.703Z,28.33
2023-03-11T22:46:02.064Z,36.13
2023-03-11T22:48:37.876Z,23.37
2023-03-11T22:51:12.801Z,24.63
2023-03-11T22:53:48.293Z,29.07
2023-03-11T22:56:24.553Z,24.27
2023-03-11T22:58:59.872Z,48.63
2023-03-11T23:01:35.709Z,34.10
2023-03-11T23:04:13.235Z,26.47
2023-03-11T23:06:47.589Z,25.57
2023-03-11T23:09:23.465Z,25.00
2023-03-11T23:11:59.063Z,21.87
2023-03-11T23:14:44.603Z,21.70
2023-03-11T23:17:20.338Z,21.60
2023-03-11T23:19:57.515Z,19.53
2023-03-11T23:22:32.943Z,11.57
2023-03-11T23:25:09.680Z,19.03
2023-03-11T23:27:46.040Z,22.53
2023-03-11T23:30:22.877Z,20.63
2023-03-11T23:32:58.853Z,20.30
2023-03-11T23:35:37.634Z,27.60
2023-03-11T23:38:13.614Z,23.97
2023-03-11T23:40:49.048Z,25.83
2023-03-11T23:43:24.812Z,17.90
2023-03-11T23:46:00.600Z,15.30
2023-03-11T23:48:36.875Z,30.67
2023-03-11T23:51:15.429Z,22.43
2023-03-11T23:53:52.952Z,35.83
2023-03-11T23:56:28.756Z,25.53
2023-03-11T23:59:04.640Z,26.77
